N1KE KATL-KBOS
Flight info
| Callsign | N1KE |
|---|---|
| Flight time | 1h 56m |
| Altitude | 41000 |
| Route | SMKEY2 BOBBD Q71 KONGO Q34 RBV Q419 JFK ROBUC3 |
| Aircraft | CL60/M-SADE3FGHIJ3J4J7P2RWXY/HB1D1 |
Departure
| Time | 2026-05-07 21:31 |
|---|---|
| Airport | Hartsfield Jackson Atlanta International Airport (KATL) |
Arrival
| Time | 2026-05-07 23:27 |
|---|---|
| Airport | Boston Logan International Airport (KBOS) |
| Time | Latitude | Longitude | Altitude | Speed | Heading |
|---|---|---|---|---|---|
| 2026-05-07 20:52 | 33.65196 | -84.43024 | 1023 ft | 2 kts | 64° |
| 2026-05-07 20:53 | 33.65193 | -84.43037 | 1023 ft | 0 kts | 91° |
| 2026-05-07 20:53 | 33.65193 | -84.43008 | 1023 ft | 6 kts | 90° |
| 2026-05-07 20:53 | 33.65193 | -84.42962 | 1023 ft | 5 kts | 90° |
| 2026-05-07 20:53 | 33.65194 | -84.42905 | 1023 ft | 5 kts | 88° |
| 2026-05-07 20:54 | 33.65194 | -84.42877 | 1023 ft | 2 kts | 93° |
| 2026-05-07 20:54 | 33.65194 | -84.42828 | 1023 ft | 7 kts | 90° |
| 2026-05-07 20:54 | 33.65194 | -84.42764 | 1023 ft | 7 kts | 90° |
| 2026-05-07 20:54 | 33.65194 | -84.42699 | 1023 ft | 6 kts | 90° |
| 2026-05-07 20:55 | 33.65194 | -84.42661 | 1023 ft | 2 kts | 90° |
| 2026-05-07 20:55 | 33.65193 | -84.42625 | 1023 ft | 7 kts | 92° |
| 2026-05-07 20:55 | 33.65190 | -84.42561 | 1023 ft | 6 kts | 92° |
| 2026-05-07 20:55 | 33.65189 | -84.42523 | 1023 ft | 2 kts | 92° |
| 2026-05-07 20:56 | 33.65189 | -84.42509 | 1023 ft | 4 kts | 82° |
| 2026-05-07 20:56 | 33.65203 | -84.42477 | 1023 ft | 3 kts | 45° |
| 2026-05-07 20:56 | 33.65212 | -84.42469 | 1023 ft | 1 kts | 32° |
| 2026-05-07 20:56 | 33.65213 | -84.42467 | 1023 ft | 0 kts | 33° |
| 2026-05-07 21:24 | 33.65218 | -84.42464 | 1022 ft | 2 kts | 38° |
| 2026-05-07 21:25 | 33.65220 | -84.42432 | 1022 ft | 6 kts | 129° |
| 2026-05-07 21:25 | 33.65174 | -84.42445 | 1022 ft | 9 kts | 229° |
| 2026-05-07 21:25 | 33.65170 | -84.42527 | 1022 ft | 11 kts | 274° |
| 2026-05-07 21:25 | 33.65146 | -84.42589 | 1022 ft | 9 kts | 174° |
| 2026-05-07 21:26 | 33.65074 | -84.42570 | 1022 ft | 12 kts | 128° |
| 2026-05-07 21:26 | 33.65064 | -84.42458 | 1022 ft | 15 kts | 89° |
| 2026-05-07 21:26 | 33.65066 | -84.42317 | 1022 ft | 18 kts | 91° |
| 2026-05-07 21:26 | 33.65065 | -84.42151 | 1022 ft | 21 kts | 90° |
| 2026-05-07 21:27 | 33.65065 | -84.41962 | 1021 ft | 24 kts | 90° |
| 2026-05-07 21:27 | 33.65064 | -84.41743 | 1018 ft | 28 kts | 89° |
| 2026-05-07 21:27 | 33.65080 | -84.41543 | 1021 ft | 19 kts | 71° |
| 2026-05-07 21:27 | 33.65120 | -84.41398 | 1022 ft | 19 kts | 92° |
| 2026-05-07 21:28 | 33.65121 | -84.41222 | 1022 ft | 22 kts | 90° |
| 2026-05-07 21:28 | 33.65121 | -84.41028 | 1022 ft | 20 kts | 98° |
| 2026-05-07 21:28 | 33.65045 | -84.40965 | 1022 ft | 14 kts | 175° |
| 2026-05-07 21:28 | 33.64930 | -84.40964 | 1022 ft | 17 kts | 180° |
| 2026-05-07 21:29 | 33.64850 | -84.40904 | 1024 ft | 14 kts | 94° |
| 2026-05-07 21:29 | 33.64847 | -84.40778 | 1027 ft | 15 kts | 92° |
| 2026-05-07 21:29 | 33.64846 | -84.40642 | 1034 ft | 15 kts | 90° |
| 2026-05-07 21:29 | 33.64780 | -84.40565 | 1035 ft | 15 kts | 178° |
| 2026-05-07 21:30 | 33.64692 | -84.40568 | 1035 ft | 5 kts | 189° |
| 2026-05-07 21:30 | 33.64675 | -84.40617 | 1035 ft | 10 kts | 271° |
| 2026-05-07 21:30 | 33.64676 | -84.41050 | 1020 ft | 100 kts | 271° |
| 2026-05-07 21:30 | 33.64672 | -84.42220 | 1137 ft | 167 kts | 270° |
| 2026-05-07 21:31 | 33.64626 | -84.43687 | 1845 ft | 189 kts | 269° |
| 2026-05-07 21:31 | 33.64565 | -84.45317 | 2726 ft | 201 kts | 270° |
| 2026-05-07 21:31 | 33.64737 | -84.46954 | 3673 ft | 205 kts | 291° |
| 2026-05-07 21:31 | 33.65353 | -84.48544 | 4453 ft | 217 kts | 295° |
| 2026-05-07 21:32 | 33.66004 | -84.50169 | 5155 ft | 215 kts | 294° |
| 2026-05-07 21:32 | 33.66673 | -84.51859 | 5913 ft | 234 kts | 294° |
| 2026-05-07 21:32 | 33.67382 | -84.53661 | 6800 ft | 245 kts | 293° |
| 2026-05-07 21:32 | 33.68139 | -84.55515 | 7759 ft | 249 kts | 298° |
| 2026-05-07 21:33 | 33.69268 | -84.57099 | 8709 ft | 259 kts | 316° |
| 2026-05-07 21:33 | 33.70886 | -84.58097 | 9508 ft | 278 kts | 338° |
| 2026-05-07 21:33 | 33.72890 | -84.58283 | 9896 ft | 292 kts | 352° |
| 2026-05-07 21:33 | 33.74934 | -84.58249 | 9991 ft | 293 kts | 352° |
| 2026-05-07 21:34 | 33.77047 | -84.58240 | 10555 ft | 314 kts | 352° |
| 2026-05-07 21:34 | 33.79310 | -84.58206 | 11115 ft | 340 kts | 354° |
| 2026-05-07 21:34 | 33.81752 | -84.57610 | 11860 ft | 373 kts | 12° |
| 2026-05-07 21:34 | 33.84119 | -84.56171 | 12599 ft | 393 kts | 20° |
| 2026-05-07 21:35 | 33.86560 | -84.54543 | 13426 ft | 401 kts | 19° |
| 2026-05-07 21:35 | 33.89007 | -84.52918 | 14240 ft | 407 kts | 19° |
| 2026-05-07 21:35 | 33.91523 | -84.51247 | 14938 ft | 417 kts | 19° |
| 2026-05-07 21:35 | 33.94103 | -84.49532 | 15658 ft | 426 kts | 19° |
| 2026-05-07 21:36 | 33.96710 | -84.47794 | 16373 ft | 433 kts | 18° |
| 2026-05-07 21:36 | 33.99394 | -84.46004 | 17067 ft | 440 kts | 19° |
| 2026-05-07 21:36 | 34.02110 | -84.44190 | 17758 ft | 447 kts | 18° |
| 2026-05-07 21:36 | 34.04819 | -84.42378 | 18468 ft | 450 kts | 18° |
| 2026-05-07 21:37 | 34.07587 | -84.40524 | 19157 ft | 454 kts | 18° |
| 2026-05-07 21:37 | 34.10369 | -84.38660 | 19830 ft | 458 kts | 18° |
| 2026-05-07 21:37 | 34.13215 | -84.36753 | 20396 ft | 464 kts | 18° |
| 2026-05-07 21:37 | 34.14118 | -84.36161 | 20571 ft | 464 kts | 17° |
| 2026-05-07 21:38 | 34.14925 | -84.35671 | 20722 ft | 463 kts | 15° |
| 2026-05-07 21:38 | 34.17820 | -84.33784 | 21247 ft | 474 kts | 19° |
| 2026-05-07 21:39 | 34.20713 | -84.31799 | 21916 ft | 475 kts | 19° |
| 2026-05-07 21:39 | 34.23630 | -84.29803 | 22441 ft | 480 kts | 19° |
| 2026-05-07 21:39 | 34.26559 | -84.27806 | 23059 ft | 481 kts | 18° |
| 2026-05-07 21:39 | 34.29563 | -84.26144 | 23577 ft | 466 kts | 6° |
| 2026-05-07 21:40 | 34.32682 | -84.25249 | 24023 ft | 458 kts | 359° |
| 2026-05-07 21:40 | 34.35825 | -84.24519 | 24508 ft | 462 kts | 359° |
| 2026-05-07 21:40 | 34.39033 | -84.23764 | 25016 ft | 465 kts | 359° |
| 2026-05-07 21:40 | 34.42245 | -84.23010 | 25384 ft | 471 kts | 358° |
| 2026-05-07 21:41 | 34.45439 | -84.22259 | 25820 ft | 475 kts | 358° |
| 2026-05-07 21:41 | 34.48705 | -84.21487 | 26427 ft | 474 kts | 358° |
| 2026-05-07 21:41 | 34.51991 | -84.20714 | 26765 ft | 479 kts | 358° |
| 2026-05-07 21:41 | 34.55260 | -84.19945 | 27216 ft | 481 kts | 358° |
| 2026-05-07 21:42 | 34.58542 | -84.19168 | 27784 ft | 479 kts | 358° |
| 2026-05-07 21:42 | 34.61838 | -84.18388 | 28348 ft | 478 kts | 357° |
| 2026-05-07 21:42 | 34.65083 | -84.17619 | 28930 ft | 476 kts | 357° |
| 2026-05-07 21:42 | 34.68377 | -84.16842 | 29349 ft | 478 kts | 356° |
| 2026-05-07 21:43 | 34.71689 | -84.16063 | 29602 ft | 483 kts | 356° |
| 2026-05-07 21:43 | 34.74978 | -84.15288 | 29813 ft | 488 kts | 357° |
| 2026-05-07 21:43 | 34.78347 | -84.14429 | 30040 ft | 496 kts | 358° |
| 2026-05-07 21:43 | 34.81748 | -84.13483 | 30282 ft | 500 kts | 359° |
| 2026-05-07 21:44 | 34.85165 | -84.12530 | 30596 ft | 501 kts | 359° |
| 2026-05-07 21:44 | 34.88554 | -84.11584 | 30949 ft | 501 kts | 358° |
| 2026-05-07 21:44 | 34.91969 | -84.10629 | 31294 ft | 501 kts | 358° |
| 2026-05-07 21:44 | 34.95380 | -84.09676 | 31655 ft | 501 kts | 358° |
| 2026-05-07 21:45 | 34.98786 | -84.08722 | 32069 ft | 499 kts | 358° |
| 2026-05-07 21:45 | 35.02158 | -84.07777 | 32566 ft | 494 kts | 358° |
| 2026-05-07 21:45 | 35.05541 | -84.06834 | 32954 ft | 492 kts | 357° |
| 2026-05-07 21:45 | 35.08867 | -84.05907 | 33367 ft | 490 kts | 357° |
| 2026-05-07 21:46 | 35.12209 | -84.04972 | 33783 ft | 487 kts | 357° |
| 2026-05-07 21:46 | 35.15541 | -84.04039 | 34096 ft | 487 kts | 357° |
| 2026-05-07 21:46 | 35.18816 | -84.03120 | 34503 ft | 484 kts | 357° |
| 2026-05-07 21:46 | 35.22138 | -84.02193 | 34691 ft | 486 kts | 357° |
| 2026-05-07 21:47 | 35.25445 | -84.01270 | 34956 ft | 486 kts | 357° |
| 2026-05-07 21:47 | 35.28782 | -84.00336 | 35253 ft | 485 kts | 357° |
| 2026-05-07 21:47 | 35.32057 | -83.99414 | 35625 ft | 482 kts | 357° |
| 2026-05-07 21:47 | 35.35339 | -83.98492 | 35883 ft | 482 kts | 357° |
| 2026-05-07 21:48 | 35.38598 | -83.97571 | 36285 ft | 478 kts | 357° |
| 2026-05-07 21:48 | 35.41881 | -83.96643 | 36552 ft | 477 kts | 357° |
| 2026-05-07 21:48 | 35.45123 | -83.95727 | 36785 ft | 477 kts | 357° |
| 2026-05-07 21:48 | 35.48401 | -83.94802 | 37016 ft | 476 kts | 357° |
| 2026-05-07 21:49 | 35.51613 | -83.93895 | 37190 ft | 477 kts | 357° |
| 2026-05-07 21:49 | 35.54880 | -83.92970 | 37467 ft | 475 kts | 357° |
| 2026-05-07 21:49 | 35.58115 | -83.92055 | 37686 ft | 475 kts | 357° |
| 2026-05-07 21:49 | 35.61360 | -83.91138 | 37821 ft | 476 kts | 357° |
| 2026-05-07 21:50 | 35.64597 | -83.90222 | 37994 ft | 476 kts | 357° |
| 2026-05-07 21:50 | 35.67810 | -83.89310 | 38174 ft | 476 kts | 357° |
| 2026-05-07 21:50 | 35.71063 | -83.88387 | 38335 ft | 476 kts | 357° |
| 2026-05-07 21:50 | 35.74313 | -83.87465 | 38534 ft | 475 kts | 357° |
| 2026-05-07 21:51 | 35.77538 | -83.86444 | 38771 ft | 481 kts | 1° |
| 2026-05-07 21:51 | 35.80756 | -83.85046 | 38946 ft | 494 kts | 7° |
| 2026-05-07 21:51 | 35.83943 | -83.83196 | 38984 ft | 510 kts | 14° |
| 2026-05-07 21:51 | 35.87038 | -83.81076 | 39139 ft | 513 kts | 15° |
| 2026-05-07 21:52 | 35.90176 | -83.78906 | 39360 ft | 511 kts | 15° |
| 2026-05-07 21:52 | 35.93252 | -83.76781 | 39551 ft | 509 kts | 15° |
| 2026-05-07 21:52 | 35.96326 | -83.74661 | 39668 ft | 509 kts | 15° |
| 2026-05-07 21:52 | 35.99447 | -83.72508 | 39786 ft | 509 kts | 15° |
| 2026-05-07 21:53 | 36.02554 | -83.70363 | 39906 ft | 509 kts | 15° |
| 2026-05-07 21:53 | 36.05644 | -83.68230 | 40013 ft | 509 kts | 15° |
| 2026-05-07 21:53 | 36.08746 | -83.66085 | 40166 ft | 509 kts | 15° |
| 2026-05-07 21:53 | 36.11849 | -83.63940 | 40282 ft | 508 kts | 15° |
| 2026-05-07 21:54 | 36.14956 | -83.61791 | 40413 ft | 507 kts | 15° |
| 2026-05-07 21:54 | 36.18047 | -83.59654 | 40472 ft | 509 kts | 15° |
| 2026-05-07 21:54 | 36.21167 | -83.57494 | 40608 ft | 507 kts | 15° |
| 2026-05-07 21:54 | 36.24223 | -83.55373 | 40755 ft | 506 kts | 15° |
| 2026-05-07 21:55 | 36.27316 | -83.53227 | 40888 ft | 505 kts | 15° |
| 2026-05-07 21:55 | 36.30398 | -83.51088 | 40982 ft | 505 kts | 15° |
| 2026-05-07 21:55 | 36.36538 | -83.46824 | 40983 ft | 507 kts | 15° |
| 2026-05-07 21:56 | 36.42737 | -83.42510 | 40982 ft | 508 kts | 15° |
| 2026-05-07 21:56 | 36.48931 | -83.38192 | 40986 ft | 509 kts | 15° |
| 2026-05-07 21:57 | 36.55140 | -83.33865 | 40989 ft | 510 kts | 16° |
| 2026-05-07 21:57 | 36.61362 | -83.29520 | 40989 ft | 510 kts | 16° |
| 2026-05-07 21:58 | 36.67548 | -83.25189 | 40982 ft | 511 kts | 16° |
| 2026-05-07 21:58 | 36.73753 | -83.20840 | 40984 ft | 510 kts | 16° |
| 2026-05-07 21:59 | 36.79985 | -83.16466 | 40986 ft | 510 kts | 16° |
| 2026-05-07 21:59 | 36.86161 | -83.12120 | 40976 ft | 511 kts | 16° |
| 2026-05-07 22:00 | 36.92316 | -83.07468 | 40977 ft | 524 kts | 24° |
| 2026-05-07 22:00 | 36.97940 | -83.01321 | 40970 ft | 545 kts | 37° |
| 2026-05-07 22:01 | 37.02739 | -82.93848 | 40968 ft | 554 kts | 44° |
| 2026-05-07 22:01 | 37.07460 | -82.86211 | 40966 ft | 554 kts | 44° |
| 2026-05-07 22:02 | 37.12144 | -82.78419 | 40973 ft | 556 kts | 45° |
| 2026-05-07 22:02 | 37.16772 | -82.70636 | 40971 ft | 557 kts | 45° |
| 2026-05-07 22:03 | 37.21431 | -82.62794 | 40965 ft | 559 kts | 45° |
| 2026-05-07 22:03 | 37.26097 | -82.54929 | 40968 ft | 561 kts | 45° |
| 2026-05-07 22:04 | 37.30766 | -82.47045 | 40962 ft | 563 kts | 46° |
| 2026-05-07 22:04 | 37.35463 | -82.39101 | 40969 ft | 566 kts | 46° |
| 2026-05-07 22:05 | 37.40192 | -82.31098 | 40964 ft | 568 kts | 46° |
| 2026-05-07 22:05 | 37.44912 | -82.23088 | 40958 ft | 569 kts | 46° |
| 2026-05-07 22:06 | 37.49420 | -82.14827 | 40952 ft | 577 kts | 54° |
| 2026-05-07 22:06 | 37.52773 | -82.05566 | 40950 ft | 586 kts | 67° |
| 2026-05-07 22:07 | 37.55439 | -81.95802 | 40959 ft | 586 kts | 68° |
| 2026-05-07 22:07 | 37.58083 | -81.86099 | 40938 ft | 586 kts | 67° |
| 2026-05-07 22:08 | 37.60733 | -81.76353 | 40943 ft | 586 kts | 67° |
| 2026-05-07 22:08 | 37.63371 | -81.66625 | 40944 ft | 585 kts | 68° |
| 2026-05-07 22:09 | 37.65997 | -81.56915 | 40949 ft | 584 kts | 67° |
| 2026-05-07 22:09 | 37.68628 | -81.47156 | 40960 ft | 584 kts | 68° |
| 2026-05-07 22:10 | 37.71237 | -81.37450 | 40943 ft | 584 kts | 68° |
| 2026-05-07 22:10 | 37.73828 | -81.27776 | 40959 ft | 582 kts | 68° |
| 2026-05-07 22:11 | 37.76425 | -81.18042 | 40961 ft | 581 kts | 69° |
| 2026-05-07 22:11 | 37.78265 | -81.08085 | 40946 ft | 585 kts | 82° |
| 2026-05-07 22:12 | 37.78992 | -80.97797 | 40946 ft | 586 kts | 85° |
| 2026-05-07 22:12 | 37.79661 | -80.87530 | 40919 ft | 586 kts | 85° |
| 2026-05-07 22:13 | 37.80327 | -80.77248 | 40929 ft | 585 kts | 86° |
| 2026-05-07 22:13 | 37.80983 | -80.67007 | 40939 ft | 585 kts | 85° |
| 2026-05-07 22:14 | 37.81635 | -80.56737 | 40944 ft | 586 kts | 86° |
| 2026-05-07 22:14 | 37.82280 | -80.46468 | 40939 ft | 587 kts | 86° |
| 2026-05-07 22:15 | 37.82917 | -80.36172 | 40924 ft | 588 kts | 85° |
| 2026-05-07 22:15 | 37.83546 | -80.25864 | 40939 ft | 587 kts | 86° |
| 2026-05-07 22:16 | 37.84169 | -80.15541 | 40921 ft | 587 kts | 86° |
| 2026-05-07 22:16 | 37.84781 | -80.05263 | 40911 ft | 588 kts | 86° |
| 2026-05-07 22:17 | 37.85389 | -79.94910 | 40913 ft | 589 kts | 85° |
| 2026-05-07 22:17 | 37.85984 | -79.84595 | 40913 ft | 590 kts | 86° |
| 2026-05-07 22:18 | 37.86806 | -79.69030 | 40920 ft | 589 kts | 88° |
| 2026-05-07 22:19 | 37.87154 | -79.58687 | 40907 ft | 589 kts | 88° |
| 2026-05-07 22:19 | 37.87499 | -79.48283 | 40912 ft | 590 kts | 88° |
| 2026-05-07 22:20 | 37.87833 | -79.37891 | 40900 ft | 590 kts | 88° |
| 2026-05-07 22:20 | 37.88600 | -79.27568 | 40872 ft | 589 kts | 81° |
| 2026-05-07 22:21 | 37.89814 | -79.17333 | 40873 ft | 589 kts | 81° |
| 2026-05-07 22:21 | 37.91021 | -79.07001 | 40890 ft | 589 kts | 82° |
| 2026-05-07 22:22 | 37.92205 | -78.96788 | 40907 ft | 588 kts | 82° |
| 2026-05-07 22:22 | 37.93389 | -78.86512 | 40898 ft | 589 kts | 81° |
| 2026-05-07 22:23 | 37.94556 | -78.76286 | 40890 ft | 589 kts | 81° |
| 2026-05-07 22:23 | 37.95725 | -78.65960 | 40897 ft | 589 kts | 81° |
| 2026-05-07 22:24 | 37.96879 | -78.55681 | 40910 ft | 589 kts | 82° |
| 2026-05-07 22:24 | 37.98024 | -78.45394 | 40914 ft | 589 kts | 82° |
| 2026-05-07 22:25 | 37.99161 | -78.35088 | 40917 ft | 589 kts | 81° |
| 2026-05-07 22:25 | 38.00335 | -78.24828 | 40917 ft | 588 kts | 78° |
| 2026-05-07 22:26 | 38.02563 | -78.14880 | 40914 ft | 584 kts | 65° |
| 2026-05-07 22:26 | 38.06165 | -78.05733 | 40918 ft | 577 kts | 53° |
| 2026-05-07 22:27 | 38.10471 | -77.97109 | 40919 ft | 577 kts | 52° |
| 2026-05-07 22:27 | 38.14756 | -77.88532 | 40915 ft | 578 kts | 52° |
| 2026-05-07 22:28 | 38.19077 | -77.79853 | 40912 ft | 578 kts | 52° |
| 2026-05-07 22:28 | 38.23363 | -77.71226 | 40915 ft | 577 kts | 52° |
| 2026-05-07 22:29 | 38.27663 | -77.62557 | 40915 ft | 576 kts | 51° |
| 2026-05-07 22:29 | 38.31933 | -77.53938 | 40913 ft | 576 kts | 52° |
| 2026-05-07 22:30 | 38.36186 | -77.45313 | 40904 ft | 576 kts | 52° |
| 2026-05-07 22:30 | 38.40501 | -77.36750 | 40900 ft | 572 kts | 47° |
| 2026-05-07 22:31 | 38.45607 | -77.29062 | 40898 ft | 563 kts | 41° |
| 2026-05-07 22:31 | 38.50812 | -77.21581 | 40894 ft | 564 kts | 41° |
| 2026-05-07 22:32 | 38.56043 | -77.14041 | 40889 ft | 565 kts | 42° |
| 2026-05-07 22:32 | 38.61268 | -77.06485 | 40890 ft | 566 kts | 41° |
| 2026-05-07 22:33 | 38.66454 | -76.98965 | 40892 ft | 566 kts | 42° |
| 2026-05-07 22:33 | 38.71671 | -76.91380 | 40883 ft | 565 kts | 41° |
| 2026-05-07 22:34 | 38.76879 | -76.83794 | 40882 ft | 565 kts | 43° |
| 2026-05-07 22:34 | 38.82021 | -76.76251 | 40881 ft | 564 kts | 42° |
| 2026-05-07 22:35 | 38.87201 | -76.68640 | 40882 ft | 564 kts | 43° |
| 2026-05-07 22:35 | 38.92359 | -76.61050 | 40881 ft | 564 kts | 43° |
| 2026-05-07 22:36 | 38.97498 | -76.53471 | 40880 ft | 564 kts | 43° |
| 2026-05-07 22:36 | 39.02645 | -76.45866 | 40872 ft | 564 kts | 43° |
| 2026-05-07 22:37 | 39.07831 | -76.38184 | 40876 ft | 564 kts | 43° |
| 2026-05-07 22:37 | 39.12965 | -76.30566 | 40883 ft | 562 kts | 44° |
| 2026-05-07 22:38 | 39.18057 | -76.22990 | 40883 ft | 563 kts | 43° |
| 2026-05-07 22:38 | 39.23190 | -76.15338 | 40884 ft | 564 kts | 44° |
| 2026-05-07 22:39 | 39.28329 | -76.07657 | 40886 ft | 565 kts | 43° |
| 2026-05-07 22:39 | 39.33460 | -75.99972 | 40894 ft | 566 kts | 44° |
| 2026-05-07 22:40 | 39.38593 | -75.92261 | 40874 ft | 565 kts | 44° |
| 2026-05-07 22:40 | 39.43729 | -75.84531 | 40872 ft | 566 kts | 44° |
| 2026-05-07 22:41 | 39.48852 | -75.76801 | 40874 ft | 565 kts | 44° |
| 2026-05-07 22:41 | 39.54000 | -75.69014 | 40864 ft | 565 kts | 44° |
| 2026-05-07 22:42 | 39.59097 | -75.61282 | 40857 ft | 566 kts | 44° |
| 2026-05-07 22:42 | 39.64191 | -75.53535 | 40887 ft | 566 kts | 44° |
| 2026-05-07 22:43 | 39.69044 | -75.45381 | 40859 ft | 570 kts | 49° |
| 2026-05-07 22:43 | 39.73710 | -75.37060 | 40858 ft | 572 kts | 49° |
| 2026-05-07 22:44 | 39.78385 | -75.28713 | 40854 ft | 571 kts | 50° |
| 2026-05-07 22:44 | 39.83056 | -75.20351 | 40871 ft | 572 kts | 50° |
| 2026-05-07 22:45 | 39.87755 | -75.11923 | 40912 ft | 572 kts | 50° |
| 2026-05-07 22:45 | 39.92401 | -75.03568 | 40873 ft | 573 kts | 50° |
| 2026-05-07 22:46 | 39.97067 | -74.95126 | 40864 ft | 574 kts | 51° |
| 2026-05-07 22:46 | 40.01528 | -74.86422 | 40829 ft | 575 kts | 52° |
| 2026-05-07 22:47 | 40.05954 | -74.77727 | 40844 ft | 574 kts | 52° |
| 2026-05-07 22:47 | 40.10347 | -74.69074 | 40878 ft | 574 kts | 52° |
| 2026-05-07 22:48 | 40.14779 | -74.60318 | 40886 ft | 574 kts | 52° |
| 2026-05-07 22:48 | 40.19352 | -74.51748 | 40852 ft | 571 kts | 45° |
| 2026-05-07 22:49 | 40.24926 | -74.44498 | 40839 ft | 560 kts | 32° |
| 2026-05-07 22:49 | 40.30918 | -74.38098 | 40861 ft | 559 kts | 32° |
| 2026-05-07 22:50 | 40.36962 | -74.31624 | 40877 ft | 558 kts | 32° |
| 2026-05-07 22:50 | 40.42981 | -74.25163 | 40847 ft | 558 kts | 33° |
| 2026-05-07 22:50 | 40.45970 | -74.21918 | 40543 ft | 556 kts | 34° |
| 2026-05-07 22:51 | 40.48803 | -74.18433 | 39914 ft | 558 kts | 40° |
| 2026-05-07 22:51 | 40.51402 | -74.14594 | 39136 ft | 561 kts | 47° |
| 2026-05-07 22:51 | 40.53726 | -74.10435 | 38418 ft | 563 kts | 54° |
| 2026-05-07 22:51 | 40.55732 | -74.06039 | 37671 ft | 568 kts | 60° |
| 2026-05-07 22:52 | 40.57453 | -74.01314 | 36786 ft | 576 kts | 66° |
| 2026-05-07 22:52 | 40.58823 | -73.96360 | 36125 ft | 579 kts | 72° |
| 2026-05-07 22:52 | 40.60018 | -73.91254 | 35307 ft | 583 kts | 73° |
| 2026-05-07 22:52 | 40.61268 | -73.86142 | 34605 ft | 586 kts | 70° |
| 2026-05-07 22:53 | 40.62832 | -73.81199 | 33741 ft | 587 kts | 62° |
| 2026-05-07 22:53 | 40.64753 | -73.76505 | 32958 ft | 582 kts | 56° |
| 2026-05-07 22:53 | 40.66988 | -73.72118 | 32173 ft | 575 kts | 49° |
| 2026-05-07 22:53 | 40.69526 | -73.68027 | 31390 ft | 567 kts | 43° |
| 2026-05-07 22:54 | 40.72176 | -73.64146 | 30638 ft | 572 kts | 43° |
| 2026-05-07 22:54 | 40.74840 | -73.60246 | 29882 ft | 575 kts | 43° |
| 2026-05-07 22:54 | 40.77563 | -73.56249 | 29096 ft | 577 kts | 43° |
| 2026-05-07 22:54 | 40.80223 | -73.52339 | 28343 ft | 575 kts | 43° |
| 2026-05-07 22:55 | 40.82879 | -73.48424 | 27576 ft | 559 kts | 44° |
| 2026-05-07 22:55 | 40.85424 | -73.44671 | 26903 ft | 548 kts | 43° |
| 2026-05-07 22:55 | 40.87955 | -73.40943 | 26192 ft | 540 kts | 44° |
| 2026-05-07 22:55 | 40.90445 | -73.37271 | 25967 ft | 521 kts | 43° |
| 2026-05-07 22:56 | 40.91994 | -73.35048 | 25832 ft | 512 kts | 42° |
| 2026-05-07 22:56 | 40.94399 | -73.31603 | 25793 ft | 508 kts | 44° |
| 2026-05-07 22:56 | 40.96777 | -73.28036 | 25502 ft | 519 kts | 46° |
| 2026-05-07 22:56 | 40.99108 | -73.24451 | 25108 ft | 517 kts | 45° |
| 2026-05-07 22:57 | 41.01517 | -73.20887 | 25000 ft | 510 kts | 44° |
| 2026-05-07 22:57 | 41.03873 | -73.17392 | 24742 ft | 507 kts | 44° |
| 2026-05-07 22:57 | 41.06187 | -73.13947 | 24353 ft | 498 kts | 45° |
| 2026-05-07 22:57 | 41.08495 | -73.10516 | 23963 ft | 492 kts | 45° |
| 2026-05-07 22:58 | 41.10741 | -73.07166 | 23672 ft | 481 kts | 45° |
| 2026-05-07 22:58 | 41.13005 | -73.03795 | 23505 ft | 485 kts | 44° |
| 2026-05-07 22:58 | 41.15261 | -73.00431 | 23318 ft | 488 kts | 45° |
| 2026-05-07 22:58 | 41.17503 | -72.97077 | 23134 ft | 489 kts | 45° |
| 2026-05-07 22:59 | 41.19789 | -72.93650 | 22947 ft | 487 kts | 45° |
| 2026-05-07 22:59 | 41.21748 | -72.89989 | 22776 ft | 489 kts | 60° |
| 2026-05-07 22:59 | 41.23310 | -72.85957 | 22653 ft | 487 kts | 62° |
| 2026-05-07 22:59 | 41.23962 | -72.84257 | 22650 ft | 487 kts | 61° |
| 2026-05-07 23:00 | 41.23973 | -72.84231 | 22651 ft | 487 kts | 61° |
| 2026-05-07 23:00 | 41.25544 | -72.80270 | 22667 ft | 486 kts | 61° |
| 2026-05-07 23:00 | 41.27089 | -72.76245 | 22414 ft | 488 kts | 62° |
| 2026-05-07 23:01 | 41.28627 | -72.72197 | 22305 ft | 487 kts | 62° |
| 2026-05-07 23:01 | 41.30160 | -72.68166 | 22171 ft | 485 kts | 63° |
| 2026-05-07 23:01 | 41.31688 | -72.64140 | 22064 ft | 485 kts | 62° |
| 2026-05-07 23:01 | 41.33196 | -72.60166 | 21949 ft | 484 kts | 62° |
| 2026-05-07 23:02 | 41.34726 | -72.56129 | 21834 ft | 483 kts | 63° |
| 2026-05-07 23:02 | 41.36235 | -72.52142 | 21721 ft | 482 kts | 62° |
| 2026-05-07 23:02 | 41.37748 | -72.48141 | 21605 ft | 481 kts | 63° |
| 2026-05-07 23:02 | 41.39248 | -72.44167 | 21495 ft | 480 kts | 62° |
| 2026-05-07 23:03 | 41.40739 | -72.40211 | 21379 ft | 480 kts | 63° |
| 2026-05-07 23:03 | 41.42245 | -72.36213 | 21260 ft | 479 kts | 62° |
| 2026-05-07 23:03 | 41.43740 | -72.32233 | 21152 ft | 478 kts | 64° |
| 2026-05-07 23:03 | 41.45227 | -72.28231 | 21038 ft | 477 kts | 64° |
| 2026-05-07 23:04 | 41.46711 | -72.24236 | 20949 ft | 477 kts | 63° |
| 2026-05-07 23:04 | 41.48172 | -72.20297 | 20813 ft | 476 kts | 64° |
| 2026-05-07 23:04 | 41.49626 | -72.16309 | 20626 ft | 475 kts | 64° |
| 2026-05-07 23:04 | 41.51075 | -72.12322 | 20231 ft | 475 kts | 64° |
| 2026-05-07 23:05 | 41.52511 | -72.08369 | 19753 ft | 471 kts | 64° |
| 2026-05-07 23:05 | 41.53931 | -72.04459 | 19442 ft | 464 kts | 65° |
| 2026-05-07 23:05 | 41.55328 | -72.00584 | 19129 ft | 463 kts | 65° |
| 2026-05-07 23:05 | 41.56589 | -71.96662 | 18774 ft | 461 kts | 69° |
| 2026-05-07 23:06 | 41.57777 | -71.92660 | 18722 ft | 457 kts | 69° |
| 2026-05-07 23:06 | 41.58967 | -71.88654 | 18288 ft | 460 kts | 69° |
| 2026-05-07 23:06 | 41.60133 | -71.84718 | 17996 ft | 447 kts | 69° |
| 2026-05-07 23:06 | 41.61253 | -71.80910 | 17677 ft | 433 kts | 69° |
| 2026-05-07 23:07 | 41.62343 | -71.77204 | 17382 ft | 421 kts | 69° |
| 2026-05-07 23:07 | 41.63392 | -71.73634 | 17083 ft | 410 kts | 69° |
| 2026-05-07 23:07 | 41.64417 | -71.70142 | 16830 ft | 399 kts | 69° |
| 2026-05-07 23:07 | 41.65428 | -71.66692 | 16513 ft | 392 kts | 69° |
| 2026-05-07 23:08 | 41.66429 | -71.63274 | 16276 ft | 398 kts | 69° |
| 2026-05-07 23:08 | 41.67444 | -71.59806 | 15968 ft | 393 kts | 69° |
| 2026-05-07 23:08 | 41.68428 | -71.56438 | 15703 ft | 391 kts | 69° |
| 2026-05-07 23:08 | 41.69419 | -71.53043 | 15429 ft | 388 kts | 69° |
| 2026-05-07 23:09 | 41.70410 | -71.49643 | 15153 ft | 386 kts | 68° |
| 2026-05-07 23:09 | 41.71376 | -71.46328 | 14885 ft | 384 kts | 68° |
| 2026-05-07 23:09 | 41.72362 | -71.43045 | 14659 ft | 380 kts | 63° |
| 2026-05-07 23:09 | 41.73636 | -71.39912 | 14376 ft | 378 kts | 57° |
| 2026-05-07 23:10 | 41.74950 | -71.36862 | 14115 ft | 374 kts | 57° |
| 2026-05-07 23:10 | 41.76242 | -71.33850 | 13855 ft | 372 kts | 59° |
| 2026-05-07 23:10 | 41.77538 | -71.30823 | 13591 ft | 369 kts | 58° |
| 2026-05-07 23:10 | 41.78802 | -71.27866 | 13336 ft | 366 kts | 58° |
| 2026-05-07 23:11 | 41.80065 | -71.24909 | 13084 ft | 363 kts | 58° |
| 2026-05-07 23:11 | 41.81301 | -71.22012 | 12830 ft | 360 kts | 58° |
| 2026-05-07 23:11 | 41.82538 | -71.19108 | 12582 ft | 353 kts | 58° |
| 2026-05-07 23:11 | 41.83750 | -71.16254 | 12337 ft | 344 kts | 58° |
| 2026-05-07 23:12 | 41.84920 | -71.13500 | 12103 ft | 339 kts | 58° |
| 2026-05-07 23:12 | 41.86091 | -71.10768 | 11859 ft | 336 kts | 57° |
| 2026-05-07 23:12 | 41.87275 | -71.08035 | 11647 ft | 333 kts | 57° |
| 2026-05-07 23:12 | 41.88440 | -71.05344 | 11448 ft | 331 kts | 57° |
| 2026-05-07 23:13 | 41.89604 | -71.02652 | 11260 ft | 330 kts | 57° |
| 2026-05-07 23:13 | 41.90747 | -71.00005 | 11051 ft | 327 kts | 57° |
| 2026-05-07 23:13 | 41.91895 | -70.97344 | 10849 ft | 323 kts | 57° |
| 2026-05-07 23:13 | 41.93020 | -70.94734 | 10657 ft | 321 kts | 57° |
| 2026-05-07 23:14 | 41.94123 | -70.92172 | 10466 ft | 320 kts | 57° |
| 2026-05-07 23:14 | 41.95243 | -70.89568 | 10267 ft | 317 kts | 57° |
| 2026-05-07 23:14 | 41.96345 | -70.87005 | 10074 ft | 316 kts | 57° |
| 2026-05-07 23:14 | 41.97457 | -70.84414 | 9882 ft | 314 kts | 57° |
| 2026-05-07 23:15 | 41.98547 | -70.81875 | 9687 ft | 312 kts | 57° |
| 2026-05-07 23:15 | 41.99627 | -70.79353 | 9499 ft | 310 kts | 57° |
| 2026-05-07 23:15 | 42.00702 | -70.76856 | 9309 ft | 307 kts | 55° |
| 2026-05-07 23:15 | 42.02010 | -70.74596 | 9126 ft | 302 kts | 44° |
| 2026-05-07 23:16 | 42.03499 | -70.72634 | 8939 ft | 296 kts | 30° |
| 2026-05-07 23:16 | 42.05308 | -70.71458 | 8740 ft | 284 kts | 17° |
| 2026-05-07 23:16 | 42.07148 | -70.70517 | 8333 ft | 281 kts | 16° |
| 2026-05-07 23:16 | 42.08988 | -70.69606 | 8038 ft | 276 kts | 16° |
| 2026-05-07 23:17 | 42.10810 | -70.68720 | 7976 ft | 278 kts | 16° |
| 2026-05-07 23:17 | 42.12655 | -70.67834 | 7526 ft | 282 kts | 16° |
| 2026-05-07 23:17 | 42.14475 | -70.66965 | 7133 ft | 274 kts | 16° |
| 2026-05-07 23:17 | 42.16249 | -70.66122 | 6798 ft | 266 kts | 16° |
| 2026-05-07 23:18 | 42.17985 | -70.65308 | 6416 ft | 256 kts | 16° |
| 2026-05-07 23:18 | 42.19623 | -70.64552 | 6086 ft | 245 kts | 15° |
| 2026-05-07 23:18 | 42.21197 | -70.63856 | 5994 ft | 227 kts | 9° |
| 2026-05-07 23:18 | 42.22758 | -70.63879 | 5998 ft | 228 kts | 348° |
| 2026-05-07 23:19 | 42.24336 | -70.64299 | 5951 ft | 231 kts | 346° |
| 2026-05-07 23:19 | 42.25940 | -70.64767 | 5585 ft | 233 kts | 346° |
| 2026-05-07 23:19 | 42.27525 | -70.65227 | 5193 ft | 231 kts | 346° |
| 2026-05-07 23:19 | 42.29065 | -70.65668 | 4789 ft | 225 kts | 345° |
| 2026-05-07 23:20 | 42.30599 | -70.66101 | 4408 ft | 222 kts | 346° |
| 2026-05-07 23:20 | 42.32105 | -70.66529 | 3932 ft | 222 kts | 346° |
| 2026-05-07 23:20 | 42.33601 | -70.66946 | 3612 ft | 214 kts | 345° |
| 2026-05-07 23:20 | 42.35062 | -70.67345 | 3355 ft | 213 kts | 346° |
| 2026-05-07 23:21 | 42.36538 | -70.67750 | 3111 ft | 215 kts | 346° |
| 2026-05-07 23:21 | 42.37985 | -70.68151 | 2997 ft | 213 kts | 343° |
| 2026-05-07 23:21 | 42.39269 | -70.69128 | 2995 ft | 211 kts | 309° |
| 2026-05-07 23:21 | 42.39900 | -70.70906 | 3011 ft | 214 kts | 289° |
| 2026-05-07 23:22 | 42.40215 | -70.72895 | 3005 ft | 215 kts | 277° |
| 2026-05-07 23:22 | 42.40136 | -70.74952 | 3002 ft | 216 kts | 264° |
| 2026-05-07 23:22 | 42.39842 | -70.76923 | 3044 ft | 213 kts | 262° |
| 2026-05-07 23:22 | 42.39513 | -70.78888 | 2920 ft | 214 kts | 261° |
| 2026-05-07 23:23 | 42.39178 | -70.80829 | 2616 ft | 206 kts | 261° |
| 2026-05-07 23:23 | 42.38862 | -70.82614 | 2393 ft | 182 kts | 261° |
| 2026-05-07 23:23 | 42.38573 | -70.84259 | 2164 ft | 178 kts | 261° |
| 2026-05-07 23:23 | 42.38289 | -70.85899 | 1933 ft | 175 kts | 262° |
| 2026-05-07 23:24 | 42.38017 | -70.87433 | 1730 ft | 156 kts | 261° |
| 2026-05-07 23:24 | 42.37778 | -70.88764 | 1534 ft | 136 kts | 261° |
| 2026-05-07 23:24 | 42.37572 | -70.89908 | 1409 ft | 117 kts | 262° |
| 2026-05-07 23:24 | 42.37382 | -70.91015 | 1209 ft | 120 kts | 263° |
| 2026-05-07 23:25 | 42.37199 | -70.92088 | 1046 ft | 117 kts | 263° |
| 2026-05-07 23:25 | 42.37014 | -70.93163 | 888 ft | 117 kts | 263° |
| 2026-05-07 23:25 | 42.36825 | -70.94247 | 740 ft | 117 kts | 262° |
| 2026-05-07 23:25 | 42.36636 | -70.95311 | 582 ft | 117 kts | 262° |
| 2026-05-07 23:26 | 42.36438 | -70.96408 | 439 ft | 118 kts | 259° |
| 2026-05-07 23:26 | 42.36231 | -70.97483 | 282 ft | 119 kts | 261° |
| 2026-05-07 23:26 | 42.36044 | -70.98550 | 103 ft | 111 kts | 263° |
| 2026-05-07 23:26 | 42.35894 | -70.99500 | 29 ft | 94 kts | 260° |
| 2026-05-07 23:27 | 42.35768 | -71.00517 | 28 ft | 27 kts | 281° |
| 2026-05-07 23:27 | 42.35793 | -71.00754 | 28 ft | 23 kts | 278° |
| 2026-05-07 23:27 | 42.35818 | -71.00971 | 28 ft | 22 kts | 278° |
| 2026-05-07 23:28 | 42.35838 | -71.01166 | 28 ft | 17 kts | 276° |
| 2026-05-07 23:28 | 42.35848 | -71.01276 | 28 ft | 5 kts | 277° |
| 2026-05-07 23:28 | 42.35850 | -71.01298 | 28 ft | 0 kts | 277° |
| 2026-05-07 23:29 | 42.35852 | -71.01311 | 28 ft | 3 kts | 278° |
| 2026-05-07 23:29 | 42.35856 | -71.01362 | 28 ft | 7 kts | 277° |
| 2026-05-07 23:29 | 42.35867 | -71.01448 | 28 ft | 11 kts | 281° |
| 2026-05-07 23:29 | 42.35913 | -71.01533 | 28 ft | 10 kts | 4° |
| 2026-05-07 23:30 | 42.35996 | -71.01495 | 28 ft | 14 kts | 20° |
| 2026-05-07 23:30 | 42.36097 | -71.01448 | 28 ft | 17 kts | 19° |
| 2026-05-07 23:30 | 42.36226 | -71.01385 | 28 ft | 21 kts | 18° |
| 2026-05-07 23:30 | 42.36376 | -71.01313 | 28 ft | 24 kts | 19° |
| 2026-05-07 23:31 | 42.36549 | -71.01230 | 28 ft | 27 kts | 19° |
| 2026-05-07 23:31 | 42.36712 | -71.01149 | 28 ft | 17 kts | 20° |
| 2026-05-07 23:31 | 42.36798 | -71.01156 | 28 ft | 14 kts | 321° |
| 2026-05-07 23:31 | 42.36876 | -71.01260 | 28 ft | 16 kts | 315° |
| 2026-05-07 23:32 | 42.36965 | -71.01378 | 28 ft | 19 kts | 315° |
| 2026-05-07 23:32 | 42.37060 | -71.01508 | 28 ft | 18 kts | 315° |
| 2026-05-07 23:32 | 42.37150 | -71.01627 | 28 ft | 16 kts | 317° |
| 2026-05-07 23:32 | 42.37224 | -71.01730 | 28 ft | 16 kts | 311° |
| 2026-05-07 23:33 | 42.37310 | -71.01842 | 28 ft | 16 kts | 315° |
| 2026-05-07 23:33 | 42.37380 | -71.01935 | 28 ft | 11 kts | 315° |
| 2026-05-07 23:33 | 42.37426 | -71.01997 | 28 ft | 6 kts | 315° |
| 2026-05-07 23:33 | 42.37454 | -71.02052 | 28 ft | 7 kts | 264° |
| 2026-05-07 23:34 | 42.37426 | -71.02099 | 28 ft | 2 kts | 223° |
| 2026-05-07 23:34 | 42.37431 | -71.02132 | 28 ft | 3 kts | 313° |
| 2026-05-07 23:34 | 42.37439 | -71.02143 | 28 ft | 0 kts | 313° |